createdAt,value
2023-04-06T00:00:25.134Z,100221.56
2023-04-06T00:02:53.163Z,100338.00
2023-04-06T00:05:21.083Z,100313.09
2023-04-06T00:07:48.055Z,100328.84
2023-04-06T00:10:14.787Z,100262.06
2023-04-06T00:12:41.606Z,100300.28
2023-04-06T00:15:08.867Z,100306.94
2023-04-06T00:17:35.837Z,100330.84
2023-04-06T00:20:02.607Z,100311.09
2023-04-06T00:22:29.523Z,100336.19
2023-04-06T00:24:56.326Z,100328.06
2023-04-06T00:27:23.044Z,100340.00
2023-04-06T00:29:49.957Z,100339.53
2023-04-06T00:32:17.293Z,100336.84
2023-04-06T00:34:44.140Z,100333.34
2023-04-06T00:37:12.703Z,100304.91
2023-04-06T00:39:39.450Z,100337.09
2023-04-06T00:42:10.807Z,100328.28
2023-04-06T00:44:37.739Z,100292.16
2023-04-06T00:47:04.683Z,100322.56
2023-04-06T00:49:31.487Z,100314.59
2023-04-06T00:51:58.318Z,100327.16
2023-04-06T00:54:25.123Z,100314.06
2023-04-06T00:56:51.862Z,100290.34
2023-04-06T00:59:18.805Z,100316.78
2023-04-06T01:01:45.791Z,100320.59
2023-04-06T01:04:23.877Z,100312.13
2023-04-06T01:06:51.203Z,100305.94
2023-04-06T01:09:18.428Z,100304.44
2023-04-06T01:11:45.558Z,100252.28
2023-04-06T01:14:12.382Z,100307.16
2023-04-06T01:16:39.230Z,100305.88
2023-04-06T01:19:11.005Z,100303.94
2023-04-06T01:21:38.679Z,100257.09
2023-04-06T01:24:06.187Z,100297.47
2023-04-06T01:26:33.543Z,100297.25
2023-04-06T01:29:00.469Z,100261.72
2023-04-06T01:31:27.492Z,100268.88
2023-04-06T01:33:54.499Z,100291.97
2023-04-06T01:36:21.672Z,100223.22
2023-04-06T01:38:48.416Z,100296.31
2023-04-06T01:41:15.570Z,100294.50
2023-04-06T01:43:42.278Z,100296.66
2023-04-06T01:46:09.119Z,100293.34
2023-04-06T01:48:36.358Z,100285.00
2023-04-06T01:51:03.352Z,100294.94
2023-04-06T01:53:30.210Z,100302.38
2023-04-06T01:55:57.055Z,100280.72
2023-04-06T01:58:23.780Z,100296.16
2023-04-06T02:00:50.572Z,100301.22
2023-04-06T02:03:17.421Z,100262.59
2023-04-06T02:05:44.215Z,100294.66
2023-04-06T02:08:10.943Z,100298.13
2023-04-06T02:10:37.833Z,100267.66
2023-04-06T02:13:04.635Z,100294.69
2023-04-06T02:15:31.389Z,100251.13
2023-04-06T02:17:58.679Z,100265.72
2023-04-06T02:20:25.590Z,100275.81
2023-04-06T02:22:53.495Z,100280.63
2023-04-06T02:25:20.350Z,100278.78
2023-04-06T02:27:47.133Z,100285.88
2023-04-06T02:30:14.068Z,100236.66
2023-04-06T02:32:41.581Z,100253.72
2023-04-06T02:35:08.765Z,100260.03
2023-04-06T02:37:35.486Z,100267.63
2023-04-06T02:40:02.302Z,100262.00
2023-04-06T02:42:29.014Z,100222.94
2023-04-06T02:44:55.722Z,100266.81
2023-04-06T02:47:22.609Z,100253.38
2023-04-06T02:49:49.322Z,100263.16
2023-04-06T02:52:16.080Z,100162.78
2023-04-06T02:54:42.923Z,100261.72
2023-04-06T02:57:09.638Z,100252.09
2023-04-06T02:59:36.984Z,100243.97
2023-04-06T03:02:03.832Z,100255.41
2023-04-06T03:04:30.813Z,100239.69
2023-04-06T03:07:00.748Z,100234.41
2023-04-06T03:09:28.706Z,100252.53
2023-04-06T03:11:56.314Z,100162.88
2023-04-06T03:14:23.438Z,100243.53
2023-04-06T03:16:50.530Z,100239.25
2023-04-06T03:19:17.260Z,100244.75
2023-04-06T03:21:44.055Z,100197.97
2023-04-06T03:24:11.020Z,100243.34
2023-04-06T03:26:37.823Z,100128.25
2023-04-06T03:29:04.667Z,100224.91
2023-04-06T03:31:31.524Z,100238.38
2023-04-06T03:33:58.341Z,100148.84
2023-04-06T03:36:25.077Z,100239.44
2023-04-06T03:38:51.939Z,100207.66
2023-04-06T03:41:18.747Z,100187.34
2023-04-06T03:43:45.984Z,100221.47
2023-04-06T03:46:12.971Z,100232.59
2023-04-06T03:48:39.784Z,100228.47
2023-04-06T03:51:06.536Z,100232.19
2023-04-06T03:53:33.370Z,100182.50
2023-04-06T03:56:00.916Z,100233.16
2023-04-06T03:58:28.391Z,100181.16
2023-04-06T04:00:55.229Z,100231.09
2023-04-06T04:03:24.638Z,100189.06
2023-04-06T04:05:52.095Z,100233.28
2023-04-06T04:08:18.936Z,100243.34
2023-04-06T04:10:45.656Z,100240.66
2023-04-06T04:13:12.367Z,100246.69
2023-04-06T04:15:39.088Z,100213.59
2023-04-06T04:18:05.946Z,100243.13
2023-04-06T04:20:32.798Z,100235.97
2023-04-06T04:22:59.499Z,100204.16
2023-04-06T04:25:26.397Z,100243.56
2023-04-06T04:27:53.406Z,100200.06
2023-04-06T04:30:20.157Z,100205.81
2023-04-06T04:32:46.905Z,100193.13
2023-04-06T04:35:14.754Z,100204.88
2023-04-06T04:37:42.174Z,100238.78
2023-04-06T04:40:09.605Z,100195.94
2023-04-06T04:42:36.492Z,100243.78
2023-04-06T04:45:03.321Z,100236.31
2023-04-06T04:47:30.184Z,100243.16
2023-04-06T04:49:57.122Z,100250.53
2023-04-06T04:52:23.831Z,100230.16
2023-04-06T04:54:50.626Z,100245.84
2023-04-06T04:57:17.412Z,100245.34
2023-04-06T04:59:44.361Z,100239.81
2023-04-06T05:02:11.168Z,100246.50
2023-04-06T05:04:38.108Z,100216.13
2023-04-06T05:07:05.457Z,100245.00
2023-04-06T05:09:32.591Z,100248.56
2023-04-06T05:12:00.760Z,100255.75
2023-04-06T05:14:30.866Z,100216.72
2023-04-06T05:16:58.252Z,100261.03
2023-04-06T05:19:25.043Z,100270.41
2023-04-06T05:21:51.829Z,100272.47
2023-04-06T05:24:18.553Z,100269.31
2023-04-06T05:26:45.832Z,100289.19
2023-04-06T05:29:12.675Z,100278.59
2023-04-06T05:31:39.392Z,100237.78
2023-04-06T05:34:06.477Z,100255.25
2023-04-06T05:36:33.424Z,100272.00
2023-04-06T05:39:00.529Z,100280.50
2023-04-06T05:41:27.405Z,100290.06
2023-04-06T05:43:54.190Z,100294.63
2023-04-06T05:46:21.343Z,100298.59
2023-04-06T05:48:48.188Z,100308.13
2023-04-06T05:51:14.987Z,100308.75
2023-04-06T05:53:41.861Z,100299.81
2023-04-06T05:56:08.673Z,100309.88
2023-04-06T05:58:35.601Z,100302.53
2023-04-06T06:01:02.480Z,100305.84
2023-04-06T06:03:29.860Z,100312.53
2023-04-06T06:06:05.323Z,100308.28
2023-04-06T06:08:32.608Z,100315.88
2023-04-06T06:11:00.523Z,100319.50
2023-04-06T06:13:27.278Z,100317.19
2023-04-06T06:15:54.590Z,100324.56
2023-04-06T06:18:21.365Z,100328.91
2023-04-06T06:20:48.099Z,100330.78
2023-04-06T06:23:15.753Z,100309.09
2023-04-06T06:25:42.545Z,100323.56
2023-04-06T06:28:09.350Z,100310.25
2023-04-06T06:30:36.257Z,100309.63
2023-04-06T06:33:03.289Z,100322.34
2023-04-06T06:35:30.829Z,100321.72
2023-04-06T06:37:57.659Z,100281.56
2023-04-06T06:40:25.390Z,100314.69
2023-04-06T06:42:52.563Z,100293.97
2023-04-06T06:45:19.887Z,100317.31
2023-04-06T06:47:47.289Z,100322.09
2023-04-06T06:50:14.168Z,100323.38
2023-04-06T06:52:41.575Z,100329.31
2023-04-06T06:55:09.518Z,100276.25
2023-04-06T06:57:36.247Z,100324.53
2023-04-06T07:00:03.184Z,100323.44
2023-04-06T07:02:30.151Z,100334.75
2023-04-06T07:04:57.112Z,100347.72
2023-04-06T07:07:24.165Z,100298.53
2023-04-06T07:09:51.015Z,100345.47
2023-04-06T07:12:17.812Z,100345.41
2023-04-06T07:14:44.680Z,100345.50
2023-04-06T07:17:11.499Z,100344.94
2023-04-06T07:19:38.309Z,100341.53
2023-04-06T07:22:05.814Z,100339.78
2023-04-06T07:24:32.592Z,100343.31
2023-04-06T07:27:00.176Z,100308.63
2023-04-06T07:29:27.027Z,100354.50
2023-04-06T07:31:55.053Z,100340.03
2023-04-06T07:34:21.970Z,100353.81
2023-04-06T07:36:48.893Z,100350.94
2023-04-06T07:39:15.883Z,100318.03
2023-04-06T07:41:43.071Z,100276.00
2023-04-06T07:44:10.244Z,100360.34
2023-04-06T07:46:37.717Z,100348.66
2023-04-06T07:49:04.614Z,100362.75
2023-04-06T07:51:32.381Z,100358.66
2023-04-06T07:53:59.178Z,100351.03
2023-04-06T07:56:26.307Z,100349.94
2023-04-06T07:58:54.533Z,100331.94
2023-04-06T08:01:21.394Z,100236.06
2023-04-06T08:03:48.454Z,100331.31
2023-04-06T08:06:15.751Z,100356.19
2023-04-06T08:08:43.063Z,100343.56
2023-04-06T08:11:10.218Z,100357.22
2023-04-06T08:13:37.037Z,100333.81
2023-04-06T08:16:03.985Z,100354.84
2023-04-06T08:18:31.106Z,100368.31
2023-04-06T08:20:58.282Z,100332.41
2023-04-06T08:23:25.167Z,100368.53
2023-04-06T08:25:54.423Z,100358.44
2023-04-06T08:28:22.395Z,100368.28
2023-04-06T08:30:49.185Z,100363.53
2023-04-06T08:33:16.000Z,100379.88
2023-04-06T08:35:42.942Z,100375.69
2023-04-06T08:38:09.680Z,100373.53
2023-04-06T08:40:40.045Z,100370.28
2023-04-06T08:43:09.742Z,100368.72
2023-04-06T08:45:36.986Z,100365.91
2023-04-06T08:48:04.429Z,100352.41
2023-04-06T08:50:31.533Z,100352.53
2023-04-06T08:52:58.419Z,100379.13
2023-04-06T08:55:25.231Z,100386.59
2023-04-06T08:57:54.566Z,100382.69
2023-04-06T09:00:22.886Z,100354.00
2023-04-06T09:02:50.754Z,100376.13
2023-04-06T09:05:17.739Z,100365.78
2023-04-06T09:07:44.567Z,100393.38
2023-04-06T09:10:11.662Z,100385.88
2023-04-06T09:12:38.502Z,100365.06
2023-04-06T09:15:06.356Z,100392.91
2023-04-06T09:17:37.855Z,100379.22
2023-04-06T09:20:06.041Z,100398.75
2023-04-06T09:22:39.678Z,100384.63
2023-04-06T09:25:07.539Z,100366.38
2023-04-06T09:27:35.860Z,100388.84
2023-04-06T09:30:06.522Z,100380.41
2023-04-06T09:32:33.466Z,100396.13
2023-04-06T09:35:10.066Z,100365.53
2023-04-06T09:37:37.094Z,100396.00
2023-04-06T09:40:05.387Z,100357.09
2023-04-06T09:42:32.177Z,100397.84
2023-04-06T09:44:59.000Z,100384.81
2023-04-06T09:47:29.296Z,100405.31
2023-04-06T09:50:00.925Z,100384.38
2023-04-06T09:52:32.319Z,100349.41
2023-04-06T09:55:02.235Z,100383.63
2023-04-06T09:57:34.354Z,100373.34
2023-04-06T10:00:12.886Z,100397.59
2023-04-06T10:02:48.748Z,100393.91
2023-04-06T10:05:27.127Z,100363.09
2023-04-06T10:08:00.471Z,100389.91
2023-04-06T10:10:29.421Z,100389.16
2023-04-06T10:12:56.886Z,100380.53
2023-04-06T10:15:23.696Z,100400.66
2023-04-06T10:17:50.631Z,100405.91
2023-04-06T10:20:22.130Z,100384.09
2023-04-06T10:23:15.668Z,100380.75
2023-04-06T10:25:56.004Z,100384.88
2023-04-06T10:28:22.961Z,100399.63
2023-04-06T10:30:49.868Z,100393.50
2023-04-06T10:33:21.372Z,100392.31
2023-04-06T10:35:48.322Z,100400.63
2023-04-06T10:38:15.611Z,100399.84
2023-04-06T10:40:48.995Z,100355.53
2023-04-06T10:43:21.058Z,100385.50
2023-04-06T10:45:59.454Z,100385.13
2023-04-06T10:48:27.269Z,100390.88
2023-04-06T10:50:54.207Z,100391.25
2023-04-06T10:53:27.862Z,100374.81
2023-04-06T10:55:56.538Z,100367.00
2023-04-06T10:58:29.964Z,100399.81
2023-04-06T11:01:00.976Z,100396.91
2023-04-06T11:03:28.354Z,100322.94
2023-04-06T11:05:55.248Z,100398.69
2023-04-06T11:08:28.219Z,100390.22
2023-04-06T11:11:17.135Z,100383.53
2023-04-06T11:13:57.732Z,100338.25
2023-04-06T11:16:26.718Z,100355.34
2023-04-06T11:18:54.658Z,100385.22
2023-04-06T11:21:34.395Z,100340.50
2023-04-06T11:24:17.094Z,100355.25
2023-04-06T11:26:57.176Z,100352.72
2023-04-06T11:29:27.555Z,100354.81
2023-04-06T11:31:55.389Z,100379.44
2023-04-06T11:34:25.715Z,100332.75
2023-04-06T11:37:00.407Z,100372.31
2023-04-06T11:39:28.468Z,100365.44
2023-04-06T11:42:00.298Z,100367.81
2023-04-06T11:44:33.085Z,100362.75
2023-04-06T11:47:00.557Z,100374.06
2023-04-06T11:49:30.795Z,100358.16
2023-04-06T11:51:58.549Z,100367.31
2023-04-06T11:54:38.994Z,100349.72
2023-04-06T11:57:06.423Z,100349.84
2023-04-06T11:59:34.011Z,100348.97
2023-04-06T12:02:00.975Z,100365.38
2023-04-06T12:04:27.870Z,100364.94
2023-04-06T12:06:54.718Z,100337.69
2023-04-06T12:09:21.594Z,100339.13
2023-04-06T12:11:48.652Z,100356.91
2023-04-06T12:14:15.577Z,100323.31
2023-04-06T12:16:42.313Z,100348.34
2023-04-06T12:19:09.279Z,100336.84
2023-04-06T12:21:38.345Z,100337.56
2023-04-06T12:24:05.876Z,100322.19
2023-04-06T12:26:32.811Z,100326.66
2023-04-06T12:29:07.814Z,100325.34
2023-04-06T12:31:36.641Z,100289.19
2023-04-06T12:34:04.811Z,100304.41
2023-04-06T12:36:32.513Z,100308.09
2023-04-06T12:38:59.655Z,100323.00
2023-04-06T12:41:26.659Z,100312.94
2023-04-06T12:43:53.477Z,100314.53
2023-04-06T12:46:21.088Z,100303.44
2023-04-06T12:48:48.083Z,100308.06
2023-04-06T12:51:14.889Z,100253.41
2023-04-06T12:53:41.752Z,100311.28
2023-04-06T12:56:16.751Z,100286.78
2023-04-06T12:58:43.942Z,100300.09
2023-04-06T13:01:12.649Z,100289.84
2023-04-06T13:03:40.118Z,100301.53
2023-04-06T13:06:07.274Z,100291.63
2023-04-06T13:08:34.165Z,100298.78
2023-04-06T13:11:00.977Z,100294.19
2023-04-06T13:13:28.782Z,100251.53
2023-04-06T13:16:00.194Z,100268.19
2023-04-06T13:18:27.346Z,100252.56
2023-04-06T13:20:54.205Z,100269.59
2023-04-06T13:23:21.062Z,100265.00
2023-04-06T13:25:47.837Z,100262.88
2023-04-06T13:28:15.044Z,100229.25
2023-04-06T13:30:41.865Z,100234.81
2023-04-06T13:33:08.810Z,100253.09
2023-04-06T13:35:37.055Z,100262.66
2023-04-06T13:38:03.874Z,100207.66
2023-04-06T13:40:30.768Z,100249.59
2023-04-06T13:42:57.600Z,100237.34
2023-04-06T13:45:24.622Z,100233.19
2023-04-06T13:47:51.958Z,100221.59
2023-04-06T13:50:19.246Z,100237.91
2023-04-06T13:52:46.174Z,100232.84
2023-04-06T13:55:12.992Z,100228.22
2023-04-06T13:57:39.899Z,100222.75
2023-04-06T14:00:08.319Z,100217.75
2023-04-06T14:02:35.352Z,100245.50
2023-04-06T14:05:02.270Z,100224.06
2023-04-06T14:07:29.081Z,100198.44
2023-04-06T14:09:55.874Z,100213.25
2023-04-06T14:12:22.920Z,100213.19
2023-04-06T14:14:49.722Z,100211.50
2023-04-06T14:17:16.546Z,100213.50
2023-04-06T14:19:44.283Z,100180.97
2023-04-06T14:22:11.536Z,100189.72
2023-04-06T14:24:38.758Z,100178.06
2023-04-06T14:27:05.605Z,100189.22
2023-04-06T14:29:32.342Z,100196.16
2023-04-06T14:32:00.975Z,100174.41
2023-04-06T14:34:28.302Z,100180.13
2023-04-06T14:36:55.176Z,100183.38
2023-04-06T14:39:22.024Z,100128.63
2023-04-06T14:41:49.893Z,100144.63
2023-04-06T14:44:17.894Z,100172.16
2023-04-06T14:46:44.963Z,100159.44
2023-04-06T14:49:12.378Z,100163.50
2023-04-06T14:51:40.115Z,100123.19
2023-04-06T14:54:06.881Z,100167.47
2023-04-06T14:56:33.830Z,100178.00
2023-04-06T14:59:02.493Z,100175.06
2023-04-06T15:01:29.321Z,100170.91
2023-04-06T15:03:56.460Z,100160.50
2023-04-06T15:06:23.380Z,100152.56
2023-04-06T15:08:50.980Z,100151.75
2023-04-06T15:11:17.906Z,100168.56
2023-04-06T15:13:45.347Z,100163.16
2023-04-06T15:16:12.486Z,100155.28
2023-04-06T15:18:39.412Z,100110.78
2023-04-06T15:21:07.289Z,100129.25
2023-04-06T15:23:35.438Z,100119.00
2023-04-06T15:26:02.454Z,100151.81
2023-04-06T15:28:29.846Z,100144.81
2023-04-06T15:30:56.936Z,100143.56
2023-04-06T15:33:24.128Z,100140.22
2023-04-06T15:35:51.217Z,100135.94
2023-04-06T15:38:17.982Z,100111.22
2023-04-06T15:40:49.073Z,100084.13
2023-04-06T15:43:15.926Z,100132.19
2023-04-06T15:45:42.754Z,100120.16
2023-04-06T15:48:10.052Z,100121.00
2023-04-06T15:50:36.868Z,100137.34
2023-04-06T15:53:03.720Z,100125.44
2023-04-06T15:55:30.764Z,100122.94
2023-04-06T15:57:57.484Z,100120.09
2023-04-06T16:00:25.453Z,100098.63
2023-04-06T16:02:52.583Z,100116.25
2023-04-06T16:05:19.578Z,100124.06
2023-04-06T16:07:46.347Z,100041.72
2023-04-06T16:10:13.196Z,100127.94
2023-04-06T16:12:42.507Z,100116.47
2023-04-06T16:15:09.509Z,100111.53
2023-04-06T16:17:36.566Z,100109.22
2023-04-06T16:20:04.038Z,100116.66
2023-04-06T16:22:30.854Z,100027.66
2023-04-06T16:24:58.911Z,100105.56
2023-04-06T16:27:25.852Z,100124.88
2023-04-06T16:29:52.781Z,100126.09
2023-04-06T16:32:19.664Z,100121.97
2023-04-06T16:34:47.506Z,100130.47
2023-04-06T16:37:14.291Z,100112.38
2023-04-06T16:39:41.169Z,100124.28
2023-04-06T16:42:07.890Z,100127.13
2023-04-06T16:44:34.957Z,100097.06
2023-04-06T16:47:01.812Z,100083.00
2023-04-06T16:49:28.784Z,100131.41
2023-04-06T16:51:55.570Z,100086.19
2023-04-06T16:54:22.445Z,100095.97
2023-04-06T16:56:49.173Z,100126.75
2023-04-06T16:59:16.116Z,100122.66
2023-04-06T17:01:43.225Z,100125.44
2023-04-06T17:04:10.331Z,100123.72
2023-04-06T17:06:37.216Z,100118.22
2023-04-06T17:09:04.138Z,100113.00
2023-04-06T17:11:43.564Z,100114.97
2023-04-06T17:14:13.234Z,100117.75
2023-04-06T17:16:40.005Z,100125.03
2023-04-06T17:19:07.283Z,100118.50
2023-04-06T17:21:34.168Z,100109.75
2023-04-06T17:24:01.039Z,100111.41
2023-04-06T17:26:27.832Z,100065.72
2023-04-06T17:28:54.839Z,100114.25
2023-04-06T17:31:22.578Z,100088.34
2023-04-06T17:33:49.975Z,100100.19
2023-04-06T17:36:16.841Z,100119.13
2023-04-06T17:38:45.881Z,100106.91
2023-04-06T17:41:13.320Z,100115.91
2023-04-06T17:43:40.389Z,100113.06
2023-04-06T17:46:07.257Z,100114.69
2023-04-06T17:48:34.428Z,100082.13
2023-04-06T17:51:01.541Z,100092.84
2023-04-06T17:53:34.569Z,100113.06
2023-04-06T17:56:04.756Z,100104.59
2023-04-06T17:58:31.714Z,100117.56
2023-04-06T18:00:58.457Z,100117.88
2023-04-06T18:03:25.344Z,100125.22
2023-04-06T18:05:52.319Z,100118.97
2023-04-06T18:08:19.092Z,100099.59
2023-04-06T18:10:46.454Z,100119.31
2023-04-06T18:13:13.732Z,100128.59
2023-04-06T18:15:40.515Z,100118.78
2023-04-06T18:18:08.138Z,100121.16
2023-04-06T18:20:39.930Z,100097.78
2023-04-06T18:23:06.695Z,100119.84
2023-04-06T18:25:38.610Z,100110.34
2023-04-06T18:28:05.978Z,100105.41
2023-04-06T18:30:32.761Z,100115.59
2023-04-06T18:33:00.710Z,100104.56
2023-04-06T18:35:27.540Z,100082.19
2023-04-06T18:37:54.270Z,100114.84
2023-04-06T18:40:34.404Z,100071.69
2023-04-06T18:43:01.997Z,100109.16
2023-04-06T18:45:28.833Z,100119.72
2023-04-06T18:47:57.009Z,100097.56
2023-04-06T18:50:24.188Z,100104.63
2023-04-06T18:52:52.205Z,100112.75
2023-04-06T18:55:20.029Z,100106.97
2023-04-06T18:57:47.089Z,100113.34
2023-04-06T19:00:15.129Z,100108.69
2023-04-06T19:02:44.567Z,100105.03
2023-04-06T19:05:12.291Z,100104.16
2023-04-06T19:07:39.723Z,100075.94
2023-04-06T19:10:07.315Z,100106.47
2023-04-06T19:12:38.956Z,100109.31
2023-04-06T19:15:08.000Z,100104.47
2023-04-06T19:17:35.221Z,100108.13
2023-04-06T19:20:02.771Z,100088.72
2023-04-06T19:22:29.688Z,100091.72
2023-04-06T19:24:56.545Z,100108.84
2023-04-06T19:27:23.355Z,100137.06
2023-04-06T19:29:50.206Z,100124.69
2023-04-06T19:32:17.338Z,100044.22
2023-04-06T19:34:44.292Z,100132.06
2023-04-06T19:37:11.395Z,100139.16
2023-04-06T19:39:38.424Z,100138.69
2023-04-06T19:42:05.182Z,100152.44
2023-04-06T19:44:32.392Z,100136.56
2023-04-06T19:46:59.402Z,100147.47
2023-04-06T19:49:28.457Z,100139.69
2023-04-06T19:51:55.758Z,100136.38
2023-04-06T19:54:23.604Z,100099.91
2023-04-06T19:56:50.534Z,100158.34
2023-04-06T19:59:17.913Z,100149.38
2023-04-06T20:01:45.664Z,100133.09
2023-04-06T20:04:13.188Z,100135.31
2023-04-06T20:06:40.162Z,100152.47
2023-04-06T20:09:07.077Z,100147.50
2023-04-06T20:11:35.682Z,100145.25
2023-04-06T20:14:02.828Z,100144.91
2023-04-06T20:16:29.791Z,100102.63
2023-04-06T20:18:56.572Z,100151.31
2023-04-06T20:21:23.280Z,100148.69
2023-04-06T20:23:50.201Z,100114.69
2023-04-06T20:26:16.954Z,100135.47
2023-04-06T20:28:43.725Z,100164.66
2023-04-06T20:31:10.908Z,100153.53
2023-04-06T20:33:39.836Z,100138.75
2023-04-06T20:36:06.734Z,100159.34
2023-04-06T20:38:34.043Z,100159.34
2023-04-06T20:41:02.139Z,100162.53
2023-04-06T20:43:29.664Z,100158.88
2023-04-06T20:45:57.808Z,100166.53
2023-04-06T20:48:25.521Z,100166.06
2023-04-06T20:50:52.927Z,100143.16
2023-04-06T20:53:21.002Z,100163.81
2023-04-06T20:55:47.940Z,100173.53
2023-04-06T20:58:20.899Z,100162.06
2023-04-06T21:00:49.720Z,100164.75
2023-04-06T21:03:17.620Z,100153.19
2023-04-06T21:06:00.015Z,100148.25
2023-04-06T21:08:26.802Z,100164.31
2023-04-06T21:10:53.555Z,100165.38
2023-04-06T21:13:20.543Z,100172.81
2023-04-06T21:15:47.366Z,100179.19
2023-04-06T21:18:14.131Z,100167.72
2023-04-06T21:20:41.029Z,100179.44
2023-04-06T21:23:07.773Z,100148.00
2023-04-06T21:25:37.101Z,100163.50
2023-04-06T21:28:04.233Z,100171.88
2023-04-06T21:30:36.971Z,100165.72
2023-04-06T21:33:05.056Z,100169.75
2023-04-06T21:35:31.934Z,100170.47
2023-04-06T21:37:58.715Z,100154.03
2023-04-06T21:40:25.613Z,100167.13
2023-04-06T21:42:52.423Z,100164.66
2023-04-06T21:45:19.147Z,100162.66
2023-04-06T21:47:46.125Z,100154.63
2023-04-06T21:50:12.885Z,100164.56
2023-04-06T21:52:40.271Z,100130.16
2023-04-06T21:55:07.728Z,100151.31
2023-04-06T21:57:34.505Z,100164.78
2023-04-06T22:00:02.221Z,100157.09
2023-04-06T22:02:29.287Z,100165.97
2023-04-06T22:04:56.278Z,100163.56
2023-04-06T22:07:23.186Z,100164.56
2023-04-06T22:09:53.740Z,100147.31
2023-04-06T22:12:20.690Z,100167.97
2023-04-06T22:14:47.442Z,100165.38
2023-04-06T22:17:14.242Z,100166.66
2023-04-06T22:19:40.974Z,100158.22
2023-04-06T22:22:07.684Z,100165.78
2023-04-06T22:24:34.632Z,100139.88
2023-04-06T22:27:01.723Z,100153.78
2023-04-06T22:29:28.510Z,100159.44
2023-04-06T22:31:56.615Z,100156.16
2023-04-06T22:34:23.349Z,100162.63
2023-04-06T22:36:50.216Z,100137.25
2023-04-06T22:39:17.335Z,100148.69
2023-04-06T22:41:45.092Z,100131.31
2023-04-06T22:44:11.842Z,100111.34
2023-04-06T22:46:38.914Z,100148.09
2023-04-06T22:49:06.008Z,100136.91
2023-04-06T22:51:32.906Z,100139.16
2023-04-06T22:53:59.882Z,100137.03
2023-04-06T22:56:27.285Z,100138.22
2023-04-06T22:58:56.076Z,100139.19
2023-04-06T23:01:23.006Z,100131.38
2023-04-06T23:03:50.742Z,100138.84
2023-04-06T23:06:17.490Z,100138.72
2023-04-06T23:08:44.403Z,100123.34
2023-04-06T23:11:11.222Z,100132.19
2023-04-06T23:13:38.030Z,100111.03
2023-04-06T23:16:05.205Z,100138.22
2023-04-06T23:18:31.922Z,100133.59
2023-04-06T23:20:58.718Z,100137.94
2023-04-06T23:23:25.632Z,100134.50
2023-04-06T23:25:52.462Z,100124.69
2023-04-06T23:28:19.214Z,100129.72
2023-04-06T23:30:46.269Z,100098.78
2023-04-06T23:33:13.056Z,100114.22
2023-04-06T23:35:39.793Z,100132.50
2023-04-06T23:38:06.722Z,100099.78
2023-04-06T23:40:33.438Z,100120.97
2023-04-06T23:43:00.218Z,100120.63
2023-04-06T23:45:27.249Z,100123.59
2023-04-06T23:47:54.364Z,100112.78
2023-04-06T23:50:21.254Z,100118.34
2023-04-06T23:52:48.203Z,100115.31
2023-04-06T23:55:14.963Z,100080.06
2023-04-06T23:57:41.804Z,100019.81
